Time;durP1;ratioP1;P1;durP2;ratioP2;P2;SDS_P1;SDS_P2;PMS_P1;PMS_P2;Temp;Humidity;BMP_temperature;BMP_pressure;BME280_temperature;BME280_humidity;BME280_pressure;Samples;Min_cycle;Max_cycle;Signal;HPM_P1;HPM_P2
2021/08/19 00:00:18;;;;;;;17.40;11.33;;;15.30;89.60;;;;;;5075149;28;20198;-84
2021/08/19 00:02:44;;;;;;;15.50;11.03;;;15.30;89.80;;;;;;5074661;28;20185;-85
2021/08/19 00:05:10;;;;;;;18.37;11.70;;;15.20;90.00;;;;;;5056600;28;20211;-84
2021/08/19 00:07:36;;;;;;;15.40;11.53;;;15.20;90.10;;;;;;5056820;28;20175;-84
2021/08/19 00:10:03;;;;;;;17.60;11.70;;;15.30;90.10;;;;;;5056500;28;20241;-84
2021/08/19 00:12:29;;;;;;;17.70;12.13;;;15.30;90.10;;;;;;5056302;28;20262;-84
2021/08/19 00:14:54;;;;;;;16.53;12.10;;;15.30;90.00;;;;;;5056250;28;20656;-85
2021/08/19 00:17:20;;;;;;;17.80;10.83;;;15.20;90.10;;;;;;5074173;28;20262;-84
2021/08/19 00:19:46;;;;;;;15.30;10.90;;;15.20;90.10;;;;;;5074152;28;20167;-84
2021/08/19 00:22:11;;;;;;;17.70;11.67;;;15.20;90.00;;;;;;5074147;28;20653;-84
2021/08/19 00:24:37;;;;;;;19.00;11.83;;;15.20;90.10;;;;;;5056126;28;20638;-84
2021/08/19 00:27:03;;;;;;;13.73;10.43;;;15.20;90.10;;;;;;5074283;28;20182;-85
2021/08/19 00:29:29;;;;;;;20.70;11.33;;;15.30;89.80;;;;;;5056362;28;20175;-85
2021/08/19 00:31:54;;;;;;;12.17;8.83;;;15.30;89.80;;;;;;5073969;28;20182;-84
2021/08/19 00:34:20;;;;;;;15.23;9.93;;;15.40;89.60;;;;;;5055921;28;20241;-84
2021/08/19 00:36:45;;;;;;;22.07;11.43;;;15.30;89.80;;;;;;5055921;28;20199;-84
2021/08/19 00:39:11;;;;;;;12.00;9.37;;;15.30;89.60;;;;;;5055812;28;20171;-85
2021/08/19 00:41:37;;;;;;;14.93;10.50;;;15.30;89.50;;;;;;5073543;28;20174;-84
2021/08/19 00:44:05;;;;;;;14.40;11.33;;;15.40;89.60;;;;;;5073746;28;20185;-84
2021/08/19 00:46:33;;;;;;;17.60;11.77;;;15.30;89.40;;;;;;5073835;28;20244;-84
2021/08/19 00:49:05;;;;;;;12.27;9.20;;;15.40;89.30;;;;;;5073579;28;20179;-85
2021/08/19 00:51:45;;;;;;;16.67;10.80;;;15.30;89.10;;;;;;5055449;28;20253;-85
2021/08/19 00:54:22;;;;;;;13.17;9.77;;;15.30;89.20;;;;;;5073494;28;20191;-84
2021/08/19 00:56:57;;;;;;;11.23;9.30;;;15.30;89.10;;;;;;5055425;28;20248;-84
2021/08/19 00:59:25;;;;;;;13.13;9.43;;;15.40;89.10;;;;;;5073443;28;20155;-84
2021/08/19 01:01:52;;;;;;;13.47;8.60;;;15.40;88.90;;;;;;5055728;28;20175;-84
2021/08/19 01:04:18;;;;;;;16.50;10.47;;;15.40;88.90;;;;;;5055492;28;20183;-84
2021/08/19 01:06:44;;;;;;;14.80;10.17;;;15.40;88.80;;;;;;5055476;28;20628;-85
2021/08/19 01:09:10;;;;;;;16.00;9.37;;;15.40;88.80;;;;;;5055398;28;20185;-84
2021/08/19 01:11:39;;;;;;;11.30;9.10;;;15.40;88.80;;;;;;5073337;28;20183;-84
2021/08/19 01:14:05;;;;;;;11.57;8.70;;;15.40;88.80;;;;;;5055294;28;20403;-84
2021/08/19 01:16:32;;;;;;;13.40;9.63;;;15.30;88.70;;;;;;5073280;28;20265;-85
2021/08/19 01:18:58;;;;;;;10.30;9.20;;;15.30;88.70;;;;;;5073222;28;20588;-84
2021/08/19 01:21:23;;;;;;;18.77;11.70;;;15.30;88.50;;;;;;5055274;28;20175;-84
2021/08/19 01:23:49;;;;;;;21.23;10.17;;;15.30;88.70;;;;;;5073199;28;20186;-84
2021/08/19 01:26:18;;;;;;;21.37;11.20;;;15.30;88.70;;;;;;5055121;28;20210;-84
2021/08/19 01:28:44;;;;;;;17.00;10.47;;;15.30;88.70;;;;;;5055262;28;20179;-84
2021/08/19 01:31:15;;;;;;;17.83;9.50;;;15.30;88.60;;;;;;5073205;28;20181;-84
2021/08/19 01:33:47;;;;;;;12.03;10.23;;;15.30;88.60;;;;;;5073125;28;20274;-84
2021/08/19 01:36:13;;;;;;;15.73;10.47;;;15.20;88.50;;;;;;5055083;28;20207;-84
2021/08/19 01:38:40;;;;;;;13.47;9.57;;;15.20;89.00;;;;;;5055143;28;20175;-84
2021/08/19 01:41:07;;;;;;;14.63;10.00;;;15.20;89.10;;;;;;5072987;28;20642;-84
2021/08/19 01:43:34;;;;;;;15.70;11.60;;;15.20;89.30;;;;;;5055041;28;20186;-84
2021/08/19 01:46:20;;;;;;;21.10;10.23;;;15.00;89.60;;;;;;5072897;28;20211;-84
2021/08/19 01:48:49;;;;;;;12.97;9.40;;;15.00;90.10;;;;;;5055054;28;20613;-84
2021/08/19 01:51:19;;;;;;;17.53;11.93;;;14.90;90.60;;;;;;5054951;28;20272;-85
2021/08/19 01:53:51;;;;;;;17.67;11.50;;;14.80;91.30;;;;;;5073987;28;20214;-85
2021/08/19 01:56:20;;;;;;;16.73;12.60;;;14.80;91.40;;;;;;5076832;28;20693;-85
2021/08/19 01:58:47;;;;;;;18.17;12.70;;;14.70;91.80;;;;;;5058988;28;20179;-86
2021/08/19 02:01:25;;;;;;;19.03;13.73;;;14.70;92.00;;;;;;5077032;28;20650;-86
2021/08/19 02:03:52;;;;;;;19.20;13.83;;;14.70;92.20;;;;;;5058896;28;20266;-85
2021/08/19 02:06:19;;;;;;;22.07;14.30;;;14.60;92.40;;;;;;5058628;28;20584;-85
2021/08/19 02:08:45;;;;;;;17.43;13.67;;;14.70;92.50;;;;;;5058629;28;20187;-85
2021/08/19 02:11:12;;;;;;;20.00;14.00;;;14.70;92.40;;;;;;5058632;28;20552;-85
2021/08/19 02:13:38;;;;;;;15.97;11.60;;;14.60;92.60;;;;;;5058543;28;20203;-85
2021/08/19 02:16:04;;;;;;;23.20;14.97;;;14.50;92.70;;;;;;5076418;28;20278;-85
2021/08/19 02:18:31;;;;;;;20.63;14.77;;;14.50;93.00;;;;;;5076523;28;20163;-84
2021/08/19 02:20:56;;;;;;;22.03;13.90;;;14.50;92.90;;;;;;5058494;28;20175;-84
2021/08/19 02:23:22;;;;;;;19.30;14.00;;;14.50;93.00;;;;;;5058432;28;20183;-85
2021/08/19 02:25:48;;;;;;;16.40;11.30;;;14.50;93.00;;;;;;5076258;28;20219;-85
2021/08/19 02:28:14;;;;;;;13.73;10.80;;;14.50;93.00;;;;;;5076249;28;20179;-84
2021/08/19 02:30:39;;;;;;;13.90;10.40;;;14.50;92.90;;;;;;5076405;28;20558;-84
2021/08/19 02:33:05;;;;;;;14.47;10.80;;;14.60;92.90;;;;;;5076116;28;20262;-85
2021/08/19 02:35:32;;;;;;;10.37;7.93;;;14.50;92.80;;;;;;5076060;28;20282;-84
2021/08/19 02:38:01;;;;;;;6.47;5.87;;;14.50;92.50;;;;;;5076077;28;20172;-85
2021/08/19 02:40:28;;;;;;;7.47;5.87;;;14.40;92.50;;;;;;5076169;28;20631;-84
2021/08/19 02:42:54;;;;;;;8.10;6.67;;;14.50;92.40;;;;;;5076055;28;20543;-86
2021/08/19 02:45:20;;;;;;;11.60;6.73;;;14.40;92.40;;;;;;5075950;28;20191;-85
2021/08/19 02:47:46;;;;;;;9.53;6.43;;;14.40;92.20;;;;;;5058023;28;20270;-85
2021/08/19 02:50:13;;;;;;;9.07;6.13;;;14.30;92.30;;;;;;5058006;28;20266;-85
2021/08/19 02:52:39;;;;;;;8.17;5.00;;;14.40;92.20;;;;;;5057819;28;20267;-85
2021/08/19 02:55:06;;;;;;;7.40;5.33;;;14.30;91.90;;;;;;5057784;28;20758;-85
2021/08/19 02:57:32;;;;;;;9.13;6.07;;;14.30;91.70;;;;;;5058466;28;20175;-84
2021/08/19 02:59:58;;;;;;;7.63;5.33;;;14.30;91.70;;;;;;5058053;28;20179;-85
2021/08/19 03:02:24;;;;;;;13.30;7.30;;;14.30;91.90;;;;;;5057711;28;20266;-85
2021/08/19 03:04:50;;;;;;;7.50;5.17;;;14.30;91.60;;;;;;5056456;28;20613;-84
2021/08/19 03:07:16;;;;;;;8.23;6.63;;;14.30;91.60;;;;;;5057283;28;20183;-84
2021/08/19 03:09:41;;;;;;;11.13;6.80;;;14.30;91.50;;;;;;5057577;28;20237;-85
2021/08/19 03:12:08;;;;;;;8.07;5.43;;;14.30;91.60;;;;;;5057521;28;20179;-84
2021/08/19 03:14:35;;;;;;;11.40;6.47;;;14.30;91.60;;;;;;5057438;28;20203;-84
2021/08/19 03:17:01;;;;;;;7.70;6.07;;;14.30;91.60;;;;;;5057358;28;20631;-84
2021/08/19 03:19:27;;;;;;;8.80;5.23;;;14.30;91.30;;;;;;5057409;28;20185;-84
2021/08/19 03:21:53;;;;;;;8.20;5.67;;;14.30;91.20;;;;;;5057471;28;20179;-85
2021/08/19 03:24:19;;;;;;;8.70;6.30;;;14.30;91.20;;;;;;5057430;28;20183;-85
2021/08/19 03:26:45;;;;;;;9.07;6.43;;;14.30;91.20;;;;;;5057291;28;20291;-84
2021/08/19 03:29:11;;;;;;;9.43;5.80;;;14.30;91.20;;;;;;5075231;28;20198;-84
2021/08/19 03:31:37;;;;;;;9.13;6.27;;;14.30;91.30;;;;;;5075064;28;20228;-85
2021/08/19 03:34:02;;;;;;;9.13;6.20;;;14.30;91.40;;;;;;5075012;28;20279;-85
2021/08/19 03:36:28;;;;;;;10.87;6.70;;;14.30;91.30;;;;;;5056989;28;20274;-85
2021/08/19 03:38:54;;;;;;;16.80;6.83;;;14.40;91.30;;;;;;5057019;28;20179;-84
2021/08/19 03:41:21;;;;;;;11.50;7.00;;;14.40;91.30;;;;;;5057043;28;20206;-84
2021/08/19 03:43:46;;;;;;;13.40;6.40;;;14.40;91.40;;;;;;5056934;28;20183;-84
2021/08/19 03:46:13;;;;;;;10.03;6.17;;;14.40;91.20;;;;;;5074747;28;20196;-84
2021/08/19 03:48:39;;;;;;;13.00;6.80;;;14.50;91.20;;;;;;5056880;28;20176;-84
2021/08/19 03:51:05;;;;;;;13.67;6.60;;;14.40;91.20;;;;;;5056940;28;20184;-84
2021/08/19 03:53:31;;;;;;;11.93;6.93;;;14.50;91.20;;;;;;5074615;28;20199;-85
2021/08/19 03:55:57;;;;;;;11.27;7.10;;;14.50;91.50;;;;;;5074828;28;20592;-85
2021/08/19 03:58:23;;;;;;;11.97;6.77;;;14.50;91.40;;;;;;5056656;28;20270;-85
2021/08/19 04:00:51;;;;;;;12.67;6.77;;;14.50;91.30;;;;;;5057377;28;20180;-85
2021/08/19 04:03:17;;;;;;;12.37;8.43;;;14.50;91.40;;;;;;5058786;28;20187;-85
2021/08/19 04:05:43;;;;;;;10.87;7.50;;;14.50;91.30;;;;;;5056775;28;20226;-84
2021/08/19 04:08:09;;;;;;;11.70;7.07;;;14.50;91.30;;;;;;5056369;28;20647;-85
2021/08/19 04:10:35;;;;;;;11.07;8.20;;;14.60;91.20;;;;;;5056436;28;20179;-85
2021/08/19 04:13:00;;;;;;;12.33;8.37;;;14.60;91.00;;;;;;5056282;28;20616;-84
2021/08/19 04:15:26;;;;;;;11.40;7.77;;;14.60;91.00;;;;;;5074098;28;20270;-84
2021/08/19 04:17:52;;;;;;;14.27;8.13;;;14.60;90.70;;;;;;5055899;28;20549;-85
2021/08/19 04:20:19;;;;;;;11.07;8.17;;;14.60;90.70;;;;;;5056262;28;20321;-84
2021/08/19 04:22:45;;;;;;;20.20;8.20;;;14.60;90.90;;;;;;5056136;28;20182;-85
2021/08/19 04:25:11;;;;;;;10.63;8.10;;;14.50;91.10;;;;;;5074030;28;20191;-85
2021/08/19 04:27:37;;;;;;;13.27;7.93;;;14.60;91.30;;;;;;5073993;28;20221;-84
2021/08/19 04:30:05;;;;;;;20.43;9.00;;;14.50;91.40;;;;;;5056067;28;20183;-85
2021/08/19 04:32:30;;;;;;;9.73;7.90;;;14.60;91.40;;;;;;5074017;28;20167;-84
2021/08/19 04:34:56;;;;;;;13.67;8.43;;;14.60;91.30;;;;;;5055805;28;20698;-84
2021/08/19 04:37:22;;;;;;;12.13;9.67;;;14.60;91.20;;;;;;5073728;28;20175;-84
2021/08/19 04:39:47;;;;;;;11.87;9.50;;;14.70;91.20;;;;;;5056954;28;20206;-84
2021/08/19 04:42:13;;;;;;;15.10;10.73;;;14.80;91.20;;;;;;5073657;28;20180;-84
2021/08/19 04:44:39;;;;;;;14.73;11.33;;;14.80;91.30;;;;;;5073664;28;20175;-84
2021/08/19 04:47:04;;;;;;;17.43;12.10;;;14.80;91.30;;;;;;5073613;28;20186;-85
2021/08/19 04:49:30;;;;;;;15.70;11.97;;;14.80;91.70;;;;;;5073862;28;20171;-84
2021/08/19 04:51:56;;;;;;;18.63;14.43;;;14.70;92.30;;;;;;5056210;28;20236;-85
2021/08/19 04:54:23;;;;;;;20.27;16.03;;;14.70;92.60;;;;;;5073360;28;20706;-85
2021/08/19 04:56:48;;;;;;;22.00;17.47;;;14.70;92.90;;;;;;5055471;28;20240;-84
2021/08/19 04:59:14;;;;;;;26.23;18.37;;;14.60;93.00;;;;;;5055610;28;20183;-85
2021/08/19 05:01:40;;;;;;;25.93;17.40;;;14.60;93.10;;;;;;5055495;28;20662;-85
2021/08/19 05:04:06;;;;;;;22.87;18.40;;;14.70;93.20;;;;;;5055727;28;20187;-85
2021/08/19 05:06:33;;;;;;;13.37;9.37;;;14.60;93.20;;;;;;5073255;28;20218;-85
2021/08/19 05:09:00;;;;;;;25.70;12.20;;;14.70;92.90;;;;;;5055410;28;20189;-85
2021/08/19 05:11:26;;;;;;;13.47;8.73;;;14.60;92.80;;;;;;5055364;28;20187;-85
2021/08/19 05:13:53;;;;;;;8.50;6.73;;;14.70;92.90;;;;;;5073295;28;20206;-85
2021/08/19 05:16:19;;;;;;;10.37;8.10;;;14.60;92.90;;;;;;5073255;28;20572;-85
2021/08/19 05:18:45;;;;;;;11.97;8.80;;;14.70;92.90;;;;;;5055361;28;20175;-85
2021/08/19 05:21:13;;;;;;;13.60;9.80;;;14.70;92.90;;;;;;5055302;28;20175;-85
2021/08/19 05:23:39;;;;;;;14.80;11.27;;;14.70;92.90;;;;;;5073279;28;20171;-85
2021/08/19 05:26:05;;;;;;;19.77;13.57;;;14.80;93.00;;;;;;5073109;28;20202;-85
2021/08/19 05:28:31;;;;;;;20.63;14.10;;;14.70;93.00;;;;;;5054435;28;20175;-85
2021/08/19 05:30:56;;;;;;;16.00;12.53;;;14.80;93.20;;;;;;5055171;28;20186;-84
2021/08/19 05:33:22;;;;;;;19.07;13.33;;;14.70;93.30;;;;;;5073060;28;20286;-85
2021/08/19 05:35:48;;;;;;;16.80;13.53;;;14.70;93.40;;;;;;5055035;28;20199;-85
2021/08/19 05:38:13;;;;;;;19.60;15.10;;;14.70;93.50;;;;;;5073059;28;20179;-84
2021/08/19 05:40:39;;;;;;;17.53;14.50;;;14.70;93.60;;;;;;5073349;28;20175;-85
2021/08/19 05:43:06;;;;;;;24.23;16.00;;;14.80;93.70;;;;;;5055091;28;20182;-84
2021/08/19 05:45:32;;;;;;;26.60;16.80;;;14.80;93.70;;;;;;5054957;28;20192;-85
2021/08/19 05:47:58;;;;;;;27.13;16.43;;;14.80;93.70;;;;;;5072984;28;20588;-85
2021/08/19 05:50:24;;;;;;;23.17;16.50;;;14.80;93.60;;;;;;5072950;28;20172;-84
2021/08/19 05:52:50;;;;;;;23.70;15.40;;;14.80;93.60;;;;;;5072937;28;20186;-85
2021/08/19 05:55:16;;;;;;;24.07;14.57;;;14.80;93.30;;;;;;5054839;28;20584;-85
2021/08/19 05:57:41;;;;;;;21.40;14.00;;;14.90;93.20;;;;;;5054849;28;20566;-85
2021/08/19 06:00:08;;;;;;;18.00;11.30;;;14.80;93.20;;;;;;5054918;28;20665;-85
2021/08/19 06:02:33;;;;;;;21.43;15.30;;;14.90;93.10;;;;;;5054853;28;20532;-85
2021/08/19 06:04:59;;;;;;;19.20;14.13;;;14.90;93.10;;;;;;5054740;28;20352;-85
2021/08/19 06:07:26;;;;;;;19.50;12.83;;;15.00;93.10;;;;;;5072848;28;20167;-84
2021/08/19 06:09:51;;;;;;;25.83;12.97;;;15.00;92.90;;;;;;5073117;28;20627;-85
2021/08/19 06:12:17;;;;;;;18.57;13.50;;;15.00;92.90;;;;;;5072859;28;20182;-85
2021/08/19 06:14:43;;;;;;;17.23;12.90;;;15.00;93.10;;;;;;5054583;28;20215;-85
2021/08/19 06:17:09;;;;;;;20.90;11.83;;;15.00;93.00;;;;;;5072676;28;20172;-85
2021/08/19 06:19:34;;;;;;;20.63;13.17;;;15.00;93.00;;;;;;5054687;28;20186;-85
2021/08/19 06:22:00;;;;;;;15.67;12.53;;;15.00;93.00;;;;;;5072938;28;20679;-84
2021/08/19 06:24:26;;;;;;;18.70;13.07;;;15.00;92.90;;;;;;5072561;28;20225;-84
2021/08/19 06:26:51;;;;;;;27.03;12.23;;;15.00;92.60;;;;;;5054572;28;20199;-85
2021/08/19 06:29:17;;;;;;;24.53;11.57;;;15.00;92.40;;;;;;5055013;28;20666;-85
2021/08/19 06:31:43;;;;;;;16.77;9.07;;;14.90;91.70;;;;;;5054673;28;20237;-85
2021/08/19 06:34:08;;;;;;;16.60;10.47;;;15.00;91.40;;;;;;5054582;28;20211;-85
2021/08/19 06:36:34;;;;;;;18.03;9.47;;;14.90;91.30;;;;;;5072433;28;20191;-84
2021/08/19 06:39:00;;;;;;;15.53;9.13;;;15.00;91.60;;;;;;5054602;28;20179;-85
2021/08/19 06:41:27;;;;;;;16.40;9.73;;;15.00;91.30;;;;;;5075935;28;20171;-85
2021/08/19 06:43:53;;;;;;;14.37;9.37;;;14.90;91.60;;;;;;5075984;28;20172;-85
2021/08/19 06:46:19;;;;;;;16.03;9.37;;;15.00;91.80;;;;;;5058030;28;20202;-85
2021/08/19 06:48:44;;;;;;;21.00;10.93;;;14.90;91.80;;;;;;5057906;28;20179;-85
2021/08/19 06:51:10;;;;;;;13.97;9.53;;;14.90;92.00;;;;;;5057969;28;20179;-85
2021/08/19 06:53:36;;;;;;;16.63;9.30;;;15.00;91.70;;;;;;5058796;28;20211;-85
2021/08/19 06:56:02;;;;;;;18.67;9.23;;;15.00;91.60;;;;;;5075802;28;20199;-85
2021/08/19 06:58:28;;;;;;;13.93;8.07;;;15.10;91.60;;;;;;5060413;28;20176;-85
2021/08/19 07:00:54;;;;;;;12.87;8.73;;;15.20;91.40;;;;;;5076344;28;20168;-85
2021/08/19 07:03:20;;;;;;;12.93;7.77;;;15.20;91.60;;;;;;5078201;28;20182;-85
2021/08/19 07:05:46;;;;;;;18.88;7.25;;;15.30;91.10;;;;;;5058157;28;20698;-84
2021/08/19 07:08:12;;;;;;;12.10;6.80;;;15.40;90.80;;;;;;5075895;28;20175;-85
2021/08/19 07:10:39;;;;;;;10.47;6.80;;;15.40;90.70;;;;;;5078367;28;20168;-85
2021/08/19 07:13:05;;;;;;;11.77;7.43;;;15.60;90.70;;;;;;5058729;28;20186;-84
2021/08/19 07:15:31;;;;;;;17.85;7.30;;;15.60;90.40;;;;;;5076462;28;20277;-85
2021/08/19 07:17:57;;;;;;;16.02;7.53;;;15.60;90.00;;;;;;5057420;28;20306;-84
2021/08/19 07:20:23;;;;;;;13.52;6.47;;;15.70;90.10;;;;;;5075670;28;20240;-84
2021/08/19 07:22:48;;;;;;;16.25;7.97;;;15.70;89.70;;;;;;5057404;28;20551;-84
2021/08/19 07:25:15;;;;;;;11.40;7.72;;;15.70;89.70;;;;;;5075266;28;20669;-84
2021/08/19 07:27:42;;;;;;;14.82;7.65;;;15.70;90.20;;;;;;5057271;28;20171;-85
2021/08/19 07:30:09;;;;;;;13.93;8.13;;;15.80;90.70;;;;;;5075144;28;20254;-85
2021/08/19 07:32:35;;;;;;;14.57;8.50;;;15.80;90.30;;;;;;5057222;28;20179;-84
2021/08/19 07:35:01;;;;;;;12.90;8.10;;;15.80;90.40;;;;;;5074955;28;20291;-85
2021/08/19 07:37:27;;;;;;;13.02;8.63;;;15.80;90.40;;;;;;5074977;28;20172;-84
2021/08/19 07:39:53;;;;;;;14.68;7.85;;;15.70;90.30;;;;;;5057062;28;20178;-85
2021/08/19 07:42:18;;;;;;;14.10;9.00;;;15.70;90.80;;;;;;5057000;28;20171;-85
2021/08/19 07:44:44;;;;;;;17.33;9.60;;;15.50;91.50;;;;;;5074917;28;20178;-85
2021/08/19 07:47:09;;;;;;;18.42;9.45;;;15.50;91.90;;;;;;5056869;28;20175;-85
2021/08/19 07:49:35;;;;;;;12.73;9.20;;;15.40;92.40;;;;;;5056986;28;20175;-85
2021/08/19 07:52:01;;;;;;;16.52;9.95;;;15.50;92.60;;;;;;5056031;28;20555;-85
2021/08/19 07:54:27;;;;;;;18.02;9.50;;;15.60;92.80;;;;;;5056871;28;20199;-85
2021/08/19 07:56:52;;;;;;;17.40;10.60;;;15.70;92.80;;;;;;5074539;28;20194;-85
2021/08/19 07:59:18;;;;;;;14.75;9.55;;;15.90;93.00;;;;;;5056654;28;20168;-85
2021/08/19 08:01:44;;;;;;;15.73;9.25;;;16.00;92.80;;;;;;5056678;28;20175;-85
2021/08/19 08:04:09;;;;;;;14.45;8.88;;;15.90;92.40;;;;;;5056774;28;20627;-84
2021/08/19 08:06:37;;;;;;;16.88;9.20;;;16.00;92.50;;;;;;5078852;23;20235;-89
2021/08/19 08:09:03;;;;;;;14.38;9.27;;;16.00;92.60;;;;;;5056980;28;20182;-88
2021/08/19 08:11:29;;;;;;;16.00;9.00;;;16.00;92.30;;;;;;5056786;28;20172;-89
2021/08/19 08:13:54;;;;;;;17.17;9.75;;;16.00;92.40;;;;;;5074794;28;20705;-89
2021/08/19 08:16:20;;;;;;;20.58;10.00;;;16.20;92.50;;;;;;5056526;28;20206;-88
2021/08/19 08:18:45;;;;;;;16.15;9.35;;;16.10;92.10;;;;;;5056813;28;20258;-88
2021/08/19 08:21:13;;;;;;;16.58;8.88;;;16.20;92.20;;;;;;5074703;28;20171;-88
2021/08/19 08:23:43;;;;;;;19.02;8.75;;;16.30;92.00;;;;;;5056466;28;20223;-88
2021/08/19 08:26:11;;;;;;;14.48;8.40;;;16.30;92.00;;;;;;5056354;28;20195;-88
2021/08/19 08:28:37;;;;;;;15.27;8.02;;;16.40;91.90;;;;;;5056294;28;20171;-88
2021/08/19 08:31:03;;;;;;;15.90;7.43;;;16.40;90.80;;;;;;5074165;28;20565;-89
2021/08/19 08:33:33;;;;;;;13.60;6.75;;;16.50;89.80;;;;;;5056342;28;20226;-89
2021/08/19 08:36:02;;;;;;;13.02;6.97;;;16.50;89.30;;;;;;5074168;28;20183;-88
2021/08/19 08:38:30;;;;;;;15.13;7.20;;;16.60;89.20;;;;;;5056169;28;20237;-88
2021/08/19 08:40:56;;;;;;;16.63;7.30;;;16.60;89.00;;;;;;5056244;28;20671;-89
2021/08/19 08:43:23;;;;;;;16.55;7.35;;;16.60;88.40;;;;;;5056040;28;20171;-89
2021/08/19 08:45:50;;;;;;;11.68;7.03;;;16.70;89.20;;;;;;5056001;28;20309;-88
2021/08/19 08:48:17;;;;;;;18.88;7.65;;;16.80;89.50;;;;;;5056175;28;20176;-89
2021/08/19 08:50:47;;;;;;;15.13;7.18;;;16.80;89.00;;;;;;5056038;28;20179;-88
2021/08/19 08:53:14;;;;;;;18.40;7.90;;;16.90;89.20;;;;;;5055898;28;20186;-88
2021/08/19 08:55:40;;;;;;;14.60;6.88;;;16.90;89.00;;;;;;5073796;28;20187;-89
2021/08/19 08:58:07;;;;;;;15.80;7.03;;;16.90;88.40;;;;;;5055954;28;20523;-89
2021/08/19 09:00:33;;;;;;;16.17;7.45;;;16.90;88.20;;;;;;5056685;28;20171;-88
2021/08/19 09:02:59;;;;;;;18.33;7.20;;;16.80;85.90;;;;;;5073946;28;20221;-89
2021/08/19 09:05:27;;;;;;;16.60;8.07;;;16.90;87.00;;;;;;5055773;28;20199;-89
2021/08/19 09:07:55;;;;;;;18.75;7.80;;;17.00;87.60;;;;;;5073801;28;20212;-89
2021/08/19 09:10:24;;;;;;;16.00;8.88;;;16.90;87.30;;;;;;5055745;28;20183;-90
2021/08/19 09:12:50;;;;;;;13.25;8.18;;;17.00;87.70;;;;;;5073601;28;20642;-89
2021/08/19 09:15:18;;;;;;;17.15;8.07;;;16.90;88.10;;;;;;5056255;28;20203;-89
2021/08/19 09:17:49;;;;;;;14.25;8.32;;;16.90;87.50;;;;;;5073623;28;20184;-89
2021/08/19 09:20:16;;;;;;;16.75;7.85;;;16.90;87.70;;;;;;5073551;28;20155;-89
2021/08/19 09:22:58;;;;;;;11.93;7.55;;;17.00;88.00;;;;;;5055511;28;20175;-89
2021/08/19 09:25:35;;;;;;;15.57;7.60;;;16.90;88.20;;;;;;5055491;28;20199;-89
2021/08/19 09:28:20;;;;;;;16.88;8.10;;;16.90;87.40;;;;;;5055502;28;20170;-88
2021/08/19 09:30:49;;;;;;;15.45;8.30;;;17.00;88.50;;;;;;5055623;28;20195;-89
2021/08/19 09:33:18;;;;;;;13.20;7.82;;;17.00;88.40;;;;;;5055746;28;20175;-89
2021/08/19 09:35:45;;;;;;;17.98;8.13;;;17.00;87.90;;;;;;5073376;28;20187;-88
2021/08/19 09:38:20;;;;;;;17.83;7.85;;;16.80;87.60;;;;;;5055534;28;20198;-89
2021/08/19 09:41:06;;;;;;;15.98;8.77;;;16.90;88.30;;;;;;5055402;28;20181;-89
2021/08/19 09:43:52;;;;;;;15.13;7.85;;;16.80;87.30;;;;;;5055345;28;20617;-89
2021/08/19 09:46:35;;;;;;;16.10;8.43;;;16.70;87.70;;;;;;5055289;28;20237;-89
2021/08/19 09:49:02;;;;;;;13.57;8.05;;;16.80;88.00;;;;;;5055349;28;20191;-88
2021/08/19 09:51:28;;;;;;;16.38;8.30;;;16.90;88.10;;;;;;5073420;28;20537;-89
2021/08/19 09:53:58;;;;;;;15.38;8.35;;;17.00;87.70;;;;;;5055105;28;20690;-88
2021/08/19 09:56:36;;;;;;;21.25;9.15;;;17.10;88.00;;;;;;5054972;28;20226;-88
2021/08/19 09:59:23;;;;;;;17.48;9.32;;;17.10;87.70;;;;;;5055949;28;20551;-88
2021/08/19 10:01:51;;;;;;;15.98;8.18;;;17.10;87.50;;;;;;5055117;28;20171;-88
2021/08/19 10:04:17;;;;;;;15.75;8.35;;;17.10;88.10;;;;;;5055203;28;20183;-88
2021/08/19 10:06:44;;;;;;;18.30;8.30;;;17.10;87.50;;;;;;5072879;28;20210;-88
2021/08/19 10:09:10;;;;;;;15.77;8.35;;;17.00;87.30;;;;;;5073171;28;20167;-88
2021/08/19 10:11:37;;;;;;;19.65;9.48;;;17.10;87.60;;;;;;5055072;28;20176;-88
2021/08/19 10:14:04;;;;;;;15.82;8.70;;;17.30;88.30;;;;;;5072855;28;20196;-88
2021/08/19 10:16:36;;;;;;;18.98;8.82;;;17.30;86.70;;;;;;5058640;28;20222;-88
2021/08/19 10:19:08;;;;;;;14.25;8.23;;;17.20;87.10;;;;;;5059354;28;20160;-87
2021/08/19 10:21:37;;;;;;;16.42;8.30;;;17.20;86.50;;;;;;5058705;28;20164;-87
2021/08/19 10:24:04;;;;;;;13.50;7.90;;;17.30;86.80;;;;;;5076454;28;20167;-87
2021/08/19 10:26:30;;;;;;;13.52;6.97;;;17.70;87.90;;;;;;5058357;28;20229;-88
2021/08/19 10:29:00;;;;;;;12.88;7.55;;;17.80;84.90;;;;;;5076446;28;20609;-87
2021/08/19 10:31:41;;;;;;;16.63;7.97;;;17.70;84.70;;;;;;5076589;28;20203;-87
2021/08/19 10:34:08;;;;;;;17.65;8.30;;;17.90;85.10;;;;;;5058357;28;20206;-87
2021/08/19 10:36:44;;;;;;;15.43;7.05;;;17.70;84.60;;;;;;5058511;28;20188;-87
2021/08/19 10:39:19;;;;;;;18.40;8.07;;;17.60;84.50;;;;;;5076262;28;20619;-87
2021/08/19 10:41:55;;;;;;;14.70;8.20;;;17.70;83.60;;;;;;5058215;28;20654;-87
2021/08/19 10:44:40;;;;;;;16.80;7.70;;;17.60;84.50;;;;;;5076158;28;20160;-87
2021/08/19 10:47:06;;;;;;;20.98;6.82;;;17.70;84.70;;;;;;5058179;28;20234;-87
2021/08/19 10:49:34;;;;;;;15.13;6.97;;;17.60;83.50;;;;;;5058382;28;20589;-87
2021/08/19 10:52:09;;;;;;;15.60;8.85;;;17.50;83.50;;;;;;5058010;28;20210;-85
2021/08/19 10:54:36;;;;;;;16.77;7.50;;;17.50;84.90;;;;;;5075881;28;20201;-85
2021/08/19 10:57:30;;;;;;;16.20;7.90;;;17.40;84.50;;;;;;5057843;28;20191;-86
2021/08/19 10:59:58;;;;;;;18.50;7.50;;;17.50;85.20;;;;;;5055285;28;20182;-87
2021/08/19 11:02:47;;;;;;;20.60;8.50;;;17.40;84.20;;;;;;5075778;28;20319;-87
2021/08/19 11:05:28;;;;;;;14.35;7.65;;;17.40;84.80;;;;;;5075773;28;20639;-87
2021/08/19 11:07:55;;;;;;;16.08;8.23;;;17.40;84.40;;;;;;5075641;28;20520;-87
2021/08/19 11:10:32;;;;;;;17.50;8.23;;;17.50;85.00;;;;;;5075582;28;20289;-87
2021/08/19 11:13:05;;;;;;;15.73;8.25;;;17.40;84.50;;;;;;5057627;28;20171;-87
2021/08/19 11:15:32;;;;;;;20.02;8.23;;;17.50;84.80;;;;;;5075360;28;20211;-87
2021/08/19 11:17:59;;;;;;;23.88;9.05;;;17.70;85.00;;;;;;5075534;28;20163;-87
2021/08/19 11:20:30;;;;;;;14.18;7.32;;;18.00;85.30;;;;;;5057515;28;20180;-87
2021/08/19 11:23:07;;;;;;;16.45;7.85;;;18.10;82.80;;;;;;5057505;28;20712;-86
2021/08/19 11:25:35;;;;;;;14.73;8.07;;;18.10;83.30;;;;;;5074832;28;20194;-87
2021/08/19 11:28:18;;;;;;;15.88;8.35;;;18.00;82.70;;;;;;5074581;28;20642;-87
2021/08/19 11:30:47;;;;;;;12.60;7.13;;;18.00;81.30;;;;;;5057827;28;20686;-87
2021/08/19 11:33:20;;;;;;;21.85;7.95;;;17.90;82.70;;;;;;5057192;28;20167;-87
2021/08/19 11:35:53;;;;;;;14.68;8.30;;;17.90;83.60;;;;;;5057386;28;20187;-87
2021/08/19 11:38:21;;;;;;;16.13;7.75;;;18.00;82.00;;;;;;5057184;28;20168;-87
2021/08/19 11:40:51;;;;;;;13.73;7.70;;;18.20;82.70;;;;;;5074990;28;20176;-86
2021/08/19 11:43:37;;;;;;;17.92;7.53;;;18.30;80.90;;;;;;5057126;28;20171;-86
2021/08/19 11:46:12;;;;;;;18.45;7.07;;;18.50;81.60;;;;;;5057004;28;20615;-86
2021/08/19 11:48:51;;;;;;;18.85;7.45;;;18.30;80.80;;;;;;5075162;28;20662;-86
2021/08/19 11:51:37;;;;;;;14.23;8.10;;;18.40;80.20;;;;;;5074891;28;20151;-86
2021/08/19 11:54:11;;;;;;;20.45;8.57;;;18.50;79.60;;;;;;5056814;28;20201;-86
2021/08/19 11:56:45;;;;;;;11.70;6.80;;;18.70;79.90;;;;;;5056717;28;20192;-86
2021/08/19 11:59:16;;;;;;;15.00;7.10;;;18.80;78.70;;;;;;5074702;28;20520;-86
2021/08/19 12:01:50;;;;;;;17.42;7.70;;;19.20;78.30;;;;;;5056686;28;20164;-86
2021/08/19 12:04:16;;;;;;;11.80;7.28;;;19.20;78.50;;;;;;5074529;28;20269;-86
2021/08/19 12:06:42;;;;;;;19.58;7.55;;;19.20;78.80;;;;;;5056296;28;20690;-86
2021/08/19 12:09:10;;;;;;;12.48;7.63;;;19.70;77.40;;;;;;5074408;28;20179;-86
2021/08/19 12:11:39;;;;;;;11.65;7.22;;;19.90;77.90;;;;;;5056404;28;20180;-86
2021/08/19 12:14:12;;;;;;;16.10;7.95;;;20.20;76.20;;;;;;5056354;28;20704;-86
2021/08/19 12:16:50;;;;;;;13.43;8.35;;;20.30;76.00;;;;;;5056342;28;20711;-86
2021/08/19 12:19:20;;;;;;;19.63;8.23;;;20.00;75.70;;;;;;5056366;28;20167;-86
2021/08/19 12:21:52;;;;;;;14.10;7.35;;;20.10;77.30;;;;;;5074183;28;20162;-86
2021/08/19 12:24:24;;;;;;;11.18;6.57;;;20.10;77.60;;;;;;5074115;28;20168;-86
2021/08/19 12:27:25;;;;;;;14.27;7.15;;;20.30;73.20;;;;;;5056450;28;20278;-86
2021/08/19 12:29:56;;;;;;;15.63;7.82;;;20.20;74.80;;;;;;4993079;28;20178;-86
2021/08/19 12:32:30;;;;;;;14.00;7.30;;;20.20;76.30;;;;;;5042946;28;20183;-86
2021/08/19 12:35:02;;;;;;;12.18;7.28;;;20.30;75.60;;;;;;5074183;28;20240;-87
2021/08/19 12:37:30;;;;;;;10.48;6.65;;;20.30;76.10;;;;;;5055965;28;20567;-87
2021/08/19 12:39:56;;;;;;;15.23;7.28;;;20.10;75.40;;;;;;5055942;28;20274;-86